Nearby METAR Reports

 

EGNV - Tees-Side, United Kingdom
Distance from station: W 8mi, 13km
Updated: 26/07/2017 13:20
Light rain, Drizzle, Mostly cloudy
Light rain, Drizzle, Mostly cloudy
 Wind from S
Wind: S 17 mph , 28 km/h
Temperature: 17°C
Dew Point: 16°C
Humidity: 94%
Barometer: 999 hPa
Summary: Light rain, Drizzle
Clouds: Mostly cloudy
Visibility: 4 miles , 6 km
Cloud details: Partly cloudy 213 m
Mostly cloudy 366 m
2017/07/26 12:20 EGNV 261220Z 17015KT 6000 -RADZ SCT007 BKN012 17/16 Q0999
EGXE - Leeming Raf, United Kingdom
Distance from station: SW 21mi, 34km
Updated: 26/07/2017 12:50
Light rain, Drizzle, Overcast
Light rain, Drizzle, Overcast
 Wind from SSE
Wind: SSE 15 mph , 24 km/h
Temperature: 17°C
Dew Point: 16°C
Humidity: 94%
Barometer: 1000 hPa
Summary: Light rain, Drizzle
Clouds: Overcast
Visibility: 4 miles , 7 km
Cloud details: Mostly cloudy 152 m
Overcast 396 m
2017/07/26 11:50 EGXE 261150Z 16013KT 7000 -RADZ BKN005 OVC013 17/16 Q1000 YLO1 TEMPO 4000 RADZ YLO1
 
EGXZ - Topcliffe Raf, United Kingdom
Distance from station: SSW 24mi, 38km
Updated: 26/07/2017 12:50
Rain, Overcast
Rain, Overcast
 Wind from SSE
Wind: SSE 17 mph , 28 km/h
Temperature: 18°C
Dew Point: 17°C
Humidity: 94%
Barometer: 1000 hPa
Summary: Rain
Clouds: Overcast
Visibility: 3 miles , 5 km
Cloud details: Mostly cloudy 152 m
Overcast 914 m
2017/07/26 11:50 EGXZ 261150Z 16015KT 5000 RA BKN005 OVC030 18/17 Q1000 YLO1
EGXD - Dishforth Raf, United Kingdom
Distance from station: SSW 29mi, 46km
Updated: 06/06/2016 10:50
NOT Current
Clear
Clear
 Wind from SSE
Wind: SSE 5 mph , 7 km/h
Temperature: 18°C
Dew Point: 11°C
Humidity: 64%
Barometer: 1023 hPa
Clouds: Clear
Visibility: 6 miles , 10 km
2016/06/06 09:50 EGXD 060950Z AUTO 16004KT 9999 // NCD 18/11 Q1023
 
EGXU - Linton-On-Ouse R, United Kingdom
Distance from station: S 33mi, 53km
Updated: 26/07/2017 12:50
Light rain, Partly cloudy
Light rain, Partly cloudy
 Wind from S
Wind: S 15 mph , 24 km/h
Temperature: 17°C
Dew Point: 16°C
Humidity: 94%
Barometer: 1001 hPa
Summary: Light rain
Clouds: Partly cloudy
Visibility: 4 miles , 7 km
Cloud details: Mostly cloudy 213 m
Partly cloudy 1524 m
2017/07/26 11:50 EGXU 261150Z 18013KT 7000 -RA BKN007 SCT050 17/16 Q1001 GRN TEMPO 3000 RADZ YLO1
EGNT - Newcastle, United Kingdom
Distance from station: NNW 39mi, 63km
Updated: 26/07/2017 13:20
Mostly cloudy
Mostly cloudy
 Wind from S
Wind: S 10 mph , 17 km/h
Temperature: 17°C
Dew Point: 17°C
Humidity: 100%
Barometer: 998 hPa
Clouds: Mostly cloudy
Visibility: 6 miles , 10 km
Cloud details: Partly cloudy 244 m
Mostly cloudy 396 m
2017/07/26 12:20 EGNT 261220Z 19009KT 150V230 9999 SCT008 BKN013 17/17 Q0998
 
EGNM - Leeds And Bradfo, United Kingdom
Distance from station: SSW 49mi, 79km
Updated: 26/07/2017 13:20
Mostly cloudy
Mostly cloudy
 Wind from S
Wind: S 9 mph , 15 km/h
Temperature: 17°C
Dew Point: 16°C
Humidity: 94%
Barometer: 1000 hPa
Clouds: Mostly cloudy
Visibility: 6 miles , 10 km
Cloud details: Partly cloudy 305 m
Mostly cloudy 579 m
2017/07/26 12:20 EGNM 261220Z 18008KT 140V220 9999 SCT010 BKN019 17/16 Q1000